Time;durP1;ratioP1;P1;durP2;ratioP2;P2;SDS_P1;SDS_P2;PMS_P1;PMS_P2;Temp;Humidity;BMP_temperature;BMP_pressure;BME280_temperature;BME280_humidity;BME280_pressure;Samples;Min_cycle;Max_cycle;Signal;HPM_P1;HPM_P2
2024/02/16 00:01:49;;;;;;;5.00;1.65;;;;;;;10.84;100.00;100891.75;6328205;28;20348;-80
2024/02/16 00:04:52;;;;;;;5.07;1.45;;;;;;;10.82;100.00;100895.41;6328203;28;20051;-80
2024/02/16 00:07:53;;;;;;;4.93;1.55;;;;;;;10.81;100.00;100889.31;6327538;28;20071;-79
2024/02/16 00:10:55;;;;;;;5.57;1.27;;;;;;;10.80;100.00;100887.56;6328253;28;20348;-79
2024/02/16 00:13:56;;;;;;;2.17;1.20;;;;;;;10.74;100.00;100880.03;6327684;28;20044;-80
2024/02/16 00:16:58;;;;;;;3.30;1.42;;;;;;;10.71;100.00;100874.06;6327690;28;20055;-80
2024/02/16 00:20:00;;;;;;;4.75;1.40;;;;;;;10.68;100.00;100877.72;6327520;28;20416;-80
2024/02/16 00:23:06;;;;;;;5.40;1.23;;;;;;;10.63;100.00;100877.97;6327942;28;20044;-81
2024/02/16 00:26:08;;;;;;;4.60;1.30;;;;;;;10.62;100.00;100884.13;6327526;28;20383;-80
2024/02/16 00:29:09;;;;;;;2.38;1.38;;;;;;;10.59;100.00;100871.16;6326931;28;20043;-81
2024/02/16 00:32:11;;;;;;;4.40;1.70;;;;;;;10.57;100.00;100870.38;6327686;28;20182;-80
2024/02/16 00:35:13;;;;;;;4.18;1.15;;;;;;;10.59;100.00;100879.03;6327524;28;20160;-80
2024/02/16 00:38:15;;;;;;;2.25;1.50;;;;;;;10.56;100.00;100868.69;6326986;28;20048;-80
2024/02/16 00:41:20;;;;;;;2.05;1.27;;;;;;;10.60;100.00;100874.63;6327532;28;20051;-80
2024/02/16 00:44:22;;;;;;;5.07;1.40;;;;;;;10.54;100.00;100861.81;6327035;28;20051;-79
2024/02/16 00:47:23;;;;;;;4.75;1.13;;;;;;;10.55;100.00;100863.50;6326425;28;20463;-79
2024/02/16 00:50:26;;;;;;;4.15;1.52;;;;;;;10.56;100.00;100860.78;6326813;28;20435;-79
2024/02/16 00:53:27;;;;;;;1.75;1.20;;;;;;;10.53;100.00;100854.84;6326974;28;20451;-80
2024/02/16 00:56:28;;;;;;;2.75;1.10;;;;;;;10.49;100.00;100862.06;6326702;28;20052;-80
2024/02/16 00:59:30;;;;;;;1.95;1.10;;;;;;;10.45;100.00;100855.25;6326155;28;20330;-80
2024/02/16 01:02:33;;;;;;;3.67;1.65;;;;;;;10.52;100.00;100854.00;6325536;28;20044;-80
2024/02/16 01:05:36;;;;;;;3.90;1.48;;;;;;;10.51;100.00;100848.81;6326596;28;20570;-80
2024/02/16 01:08:37;;;;;;;3.60;1.63;;;;;;;10.55;100.00;100850.38;6326152;28;20163;-80
2024/02/16 01:11:38;;;;;;;3.22;1.10;;;;;;;10.56;100.00;100849.44;6326741;28;20452;-80
2024/02/16 01:14:40;;;;;;;2.13;1.25;;;;;;;10.53;100.00;100844.31;6326189;28;20044;-80
2024/02/16 01:17:41;;;;;;;3.47;1.45;;;;;;;10.49;100.00;100842.78;6325847;28;20447;-80
2024/02/16 01:20:44;;;;;;;4.85;1.40;;;;;;;10.42;100.00;100837.00;6326756;28;20052;-80
2024/02/16 01:23:45;;;;;;;7.80;1.60;;;;;;;10.40;100.00;100837.09;6326648;28;20067;-79
2024/02/16 01:26:46;;;;;;;1.88;1.05;;;;;;;10.44;100.00;100835.13;6326332;28;20436;-80
2024/02/16 01:29:48;;;;;;;13.35;1.23;;;;;;;10.54;100.00;100848.69;6325635;28;20048;-80
2024/02/16 01:32:49;;;;;;;3.70;1.67;;;;;;;10.58;100.00;100844.94;6346034;22;20057;-79
2024/02/16 01:35:52;;;;;;;1.52;1.00;;;;;;;10.57;100.00;100844.09;6276161;28;20061;-79
2024/02/16 01:38:53;;;;;;;4.90;1.02;;;;;;;10.58;100.00;100839.69;6275392;28;20380;-79
2024/02/16 01:41:54;;;;;;;1.90;1.05;;;;;;;10.59;100.00;100844.03;6275912;28;20056;-78
2024/02/16 01:44:56;;;;;;;3.38;1.33;;;;;;;10.60;100.00;100836.06;6275476;28;20060;-78
2024/02/16 01:47:59;;;;;;;2.55;1.38;;;;;;;10.57;100.00;100843.25;6275196;28;20456;-78
2024/02/16 01:51:02;;;;;;;8.38;1.38;;;;;;;10.57;100.00;100840.63;6276105;28;20056;-79
2024/02/16 01:54:04;;;;;;;2.58;1.30;;;;;;;10.47;100.00;100832.38;6275288;28;20068;-79
2024/02/16 01:57:07;;;;;;;1.95;1.30;;;;;;;10.53;100.00;100831.19;6275746;28;20045;-78
2024/02/16 02:00:09;;;;;;;1.90;0.90;;;;;;;10.50;100.00;100823.47;6275109;28;20080;-79
2024/02/16 02:03:13;;;;;;;2.88;1.00;;;;;;;10.46;100.00;100828.03;6275564;28;20425;-79
2024/02/16 02:06:15;;;;;;;1.77;1.15;;;;;;;10.42;100.00;100821.25;6275330;28;20052;-79
2024/02/16 02:09:16;;;;;;;4.00;1.00;;;;;;;10.43;100.00;100817.69;6275354;28;20056;-79
2024/02/16 02:12:18;;;;;;;3.38;1.10;;;;;;;10.47;100.00;100824.47;6275269;28;20048;-79
2024/02/16 02:15:19;;;;;;;2.90;1.30;;;;;;;10.49;100.00;100819.13;6274870;28;20349;-78
2024/02/16 02:18:21;;;;;;;2.15;1.10;;;;;;;10.50;100.00;100812.97;6274868;28;20101;-79
2024/02/16 02:21:23;;;;;;;6.28;1.30;;;;;;;10.49;100.00;100811.25;6275103;28;20056;-78
2024/02/16 02:24:26;;;;;;;2.83;1.17;;;;;;;10.50;100.00;100805.09;6274771;28;20048;-79
2024/02/16 02:27:27;;;;;;;5.32;1.83;;;;;;;10.50;100.00;100802.47;6274748;28;20049;-79
2024/02/16 02:30:29;;;;;;;3.88;1.48;;;;;;;10.49;100.00;100798.13;6275296;28;20060;-78
2024/02/16 02:33:30;;;;;;;3.47;1.10;;;;;;;10.46;100.00;100791.25;6274640;28;20064;-78
2024/02/16 02:36:32;;;;;;;2.55;1.05;;;;;;;10.45;100.00;100791.34;6275055;28;20353;-79
2024/02/16 02:39:35;;;;;;;5.43;1.23;;;;;;;10.46;100.00;100782.53;6274581;28;20056;-79
2024/02/16 02:42:37;;;;;;;2.58;0.90;;;;;;;10.44;100.00;100776.50;6275117;28;20441;-79
2024/02/16 02:45:38;;;;;;;1.70;0.93;;;;;;;10.45;100.00;100779.06;6274791;28;20460;-78
2024/02/16 02:48:39;;;;;;;5.13;1.35;;;;;;;10.44;100.00;100773.88;6274644;28;20053;-78
2024/02/16 02:51:41;;;;;;;3.55;1.25;;;;;;;10.44;100.00;100772.09;6275090;28;20049;-79
2024/02/16 02:54:43;;;;;;;2.97;0.93;;;;;;;10.45;100.00;100776.44;6266954;28;20477;-78
2024/02/16 02:57:45;;;;;;;3.20;0.95;;;;;;;10.44;100.00;100776.50;6261959;28;20457;-78
2024/02/16 03:00:46;;;;;;;2.10;1.00;;;;;;;10.42;100.00;100763.44;6268044;28;20049;-79
2024/02/16 03:03:47;;;;;;;2.78;0.80;;;;;;;10.41;100.00;100770.47;6265509;28;20083;-79
2024/02/16 03:06:49;;;;;;;1.77;1.00;;;;;;;10.45;100.00;100759.81;6263055;28;20349;-79
2024/02/16 03:09:51;;;;;;;1.42;0.80;;;;;;;10.43;100.00;100767.75;6260129;28;20334;-78
2024/02/16 03:12:54;;;;;;;1.77;0.90;;;;;;;10.42;100.00;100760.81;6262796;28;20052;-79
2024/02/16 03:15:55;;;;;;;1.63;0.90;;;;;;;10.43;100.00;100761.66;6265588;28;20041;-79
2024/02/16 03:18:56;;;;;;;3.40;0.90;;;;;;;10.41;100.00;100754.72;6263038;28;20050;-78
2024/02/16 03:21:58;;;;;;;0.98;0.80;;;;;;;10.37;100.00;100758.44;6268944;28;20429;-79
2024/02/16 03:25:01;;;;;;;2.65;0.80;;;;;;;10.36;100.00;100751.50;6274398;28;20056;-79
2024/02/16 03:28:03;;;;;;;2.47;1.35;;;;;;;10.36;100.00;100756.75;6277841;28;20123;-78
2024/02/16 03:31:04;;;;;;;2.72;1.17;;;;;;;10.37;100.00;100749.72;6279177;28;20457;-79
2024/02/16 03:34:06;;;;;;;1.85;1.08;;;;;;;10.38;100.00;100754.88;6278266;28;20077;-79
2024/02/16 03:37:08;;;;;;;2.25;1.00;;;;;;;10.35;100.00;100752.41;6278825;28;20365;-79
2024/02/16 03:40:13;;;;;;;2.42;1.00;;;;;;;10.33;100.00;100753.41;6278504;28;20064;-78
2024/02/16 03:43:14;;;;;;;1.33;0.80;;;;;;;10.36;100.00;100748.88;6278966;28;20049;-79
2024/02/16 03:46:16;;;;;;;2.45;1.05;;;;;;;10.37;100.00;100750.56;6275599;28;20432;-79
2024/02/16 03:49:17;;;;;;;2.45;0.90;;;;;;;10.38;100.00;100757.50;6278305;28;20056;-78
2024/02/16 03:52:18;;;;;;;1.20;0.93;;;;;;;10.40;100.00;100752.16;6278583;28;20056;-79
2024/02/16 03:55:21;;;;;;;1.75;1.00;;;;;;;10.38;100.00;100749.63;6277586;28;20352;-79
2024/02/16 03:58:23;;;;;;;1.38;0.93;;;;;;;10.41;100.00;100746.00;6277859;28;20052;-79
2024/02/16 04:01:24;;;;;;;1.25;0.85;;;;;;;10.38;100.00;100739.09;6277652;28;20045;-79
2024/02/16 04:04:26;;;;;;;1.83;1.20;;;;;;;10.37;100.00;100741.81;6278134;28;20052;-79
2024/02/16 04:07:28;;;;;;;2.90;1.05;;;;;;;10.34;100.00;100734.09;6277616;28;20076;-79
2024/02/16 04:10:30;;;;;;;3.75;1.65;;;;;;;10.32;100.00;100728.09;6278325;28;20429;-79
2024/02/16 04:13:32;;;;;;;1.25;0.82;;;;;;;10.33;100.00;100722.75;6277606;28;20045;-79
2024/02/16 04:16:33;;;;;;;3.50;1.23;;;;;;;10.30;100.00;100730.78;6278009;28;20060;-79
2024/02/16 04:19:37;;;;;;;3.38;1.02;;;;;;;10.28;100.00;100726.56;6277341;28;20064;-79
2024/02/16 04:22:38;;;;;;;1.45;0.90;;;;;;;10.27;100.00;100730.97;6278021;28;20048;-79
2024/02/16 04:25:41;;;;;;;2.63;1.25;;;;;;;10.23;100.00;100725.91;6277376;28;20045;-78
2024/02/16 04:28:42;;;;;;;1.65;1.05;;;;;;;10.16;100.00;100726.22;6277411;28;20045;-79
2024/02/16 04:31:45;;;;;;;2.35;0.98;;;;;;;10.14;100.00;100724.63;6277659;28;20056;-79
2024/02/16 04:34:47;;;;;;;3.70;1.10;;;;;;;10.11;100.00;100740.50;6277104;28;20090;-79
2024/02/16 04:37:49;;;;;;;4.95;1.50;;;;;;;10.04;100.00;100737.38;6275983;28;20131;-78
2024/02/16 04:40:51;;;;;;;1.15;0.85;;;;;;;10.02;100.00;100736.59;6276878;28;20111;-79
2024/02/16 04:43:53;;;;;;;1.40;1.00;;;;;;;9.98;100.00;100739.44;6277182;28;20045;-79
2024/02/16 04:46:55;;;;;;;3.00;1.10;;;;;;;9.92;100.00;100732.72;6277144;28;20136;-79
2024/02/16 04:49:56;;;;;;;1.42;0.93;;;;;;;9.89;100.00;100732.88;6276897;28;20053;-78
2024/02/16 04:52:58;;;;;;;1.63;1.00;;;;;;;9.87;100.00;100740.00;6276924;28;20049;-78
2024/02/16 04:56:02;;;;;;;1.85;0.88;;;;;;;9.83;100.00;100734.03;6276962;28;20051;-78
2024/02/16 04:59:03;;;;;;;3.10;1.50;;;;;;;9.84;100.00;100735.75;6275803;28;20192;-79
2024/02/16 05:02:06;;;;;;;2.55;1.20;;;;;;;9.85;100.00;100737.44;6276883;28;20349;-79
2024/02/16 05:05:08;;;;;;;5.72;1.20;;;;;;;9.83;100.00;100741.06;6276391;28;20049;-79
2024/02/16 05:08:09;;;;;;;3.00;1.40;;;;;;;9.80;100.00;100738.59;6276174;28;20452;-79
2024/02/16 05:11:12;;;;;;;1.75;1.05;;;;;;;9.79;100.00;100736.91;6276636;28;20049;-79
2024/02/16 05:14:13;;;;;;;3.00;1.40;;;;;;;9.75;100.00;100720.47;6276058;28;20057;-79
2024/02/16 05:17:15;;;;;;;3.42;1.10;;;;;;;9.77;100.00;100718.63;6276114;28;20356;-79
2024/02/16 05:20:16;;;;;;;2.40;1.08;;;;;;;9.75;100.00;100720.47;6276227;28;20052;-78
2024/02/16 05:23:17;;;;;;;1.48;1.05;;;;;;;9.71;100.00;100715.44;6276184;28;20361;-80
2024/02/16 05:26:20;;;;;;;1.95;1.15;;;;;;;9.71;100.00;100711.03;6275802;28;20053;-81
2024/02/16 05:29:21;;;;;;;3.70;1.67;;;;;;;9.71;100.00;100715.44;6275780;28;20433;-80
2024/02/16 05:32:23;;;;;;;2.53;1.10;;;;;;;9.74;100.00;100710.88;6276073;28;20049;-78
2024/02/16 05:35:27;;;;;;;1.60;0.90;;;;;;;9.75;100.00;100709.97;6275586;28;20263;-78
2024/02/16 05:38:35;;;;;;;3.20;1.17;;;;;;;9.79;100.00;100716.75;6275367;28;20352;-80
2024/02/16 05:41:38;;;;;;;2.78;1.00;;;;;;;9.80;100.00;100714.97;6275919;28;20524;-81
2024/02/16 05:44:39;;;;;;;1.45;1.10;;;;;;;9.77;100.00;100708.13;6275468;28;20459;-81
2024/02/16 05:47:41;;;;;;;5.40;1.20;;;;;;;9.75;100.00;100706.50;6275032;28;20052;-78
2024/02/16 05:50:43;;;;;;;2.92;1.40;;;;;;;9.76;100.00;100713.44;6275557;28;20048;-79
2024/02/16 05:53:45;;;;;;;4.15;1.38;;;;;;;9.89;100.00;100715.34;6275131;28;20053;-80
2024/02/16 05:56:49;;;;;;;9.00;1.30;;;;;;;9.94;100.00;100694.13;6275691;28;20219;-80
2024/02/16 05:59:52;;;;;;;2.22;1.02;;;;;;;9.97;100.00;100693.97;6274938;28;20432;-80
2024/02/16 06:02:53;;;;;;;4.32;1.05;;;;;;;9.98;100.00;100692.19;6275670;28;20055;-80
2024/02/16 06:05:54;;;;;;;1.95;1.08;;;;;;;10.02;100.00;100694.56;6275268;28;20053;-80
2024/02/16 06:08:55;;;;;;;1.60;0.90;;;;;;;10.03;100.00;100693.63;6274772;28;20357;-79
2024/02/16 06:11:58;;;;;;;3.10;1.20;;;;;;;10.10;100.00;100689.78;6275346;28;20045;-80
2024/02/16 06:15:00;;;;;;;2.13;1.00;;;;;;;10.11;100.00;100691.47;6274929;28;20067;-80
2024/02/16 06:18:02;;;;;;;2.20;1.23;;;;;;;10.14;100.00;100700.97;6274869;28;20456;-80
2024/02/16 06:21:04;;;;;;;1.23;0.90;;;;;;;10.18;100.00;100712.19;6275601;28;20052;-80
2024/02/16 06:24:07;;;;;;;3.20;1.00;;;;;;;10.15;100.00;100721.03;6275001;28;20048;-80
2024/02/16 06:27:10;;;;;;;1.80;1.20;;;;;;;10.12;100.00;100716.78;6275084;28;20470;-80
2024/02/16 06:30:13;;;;;;;3.08;1.05;;;;;;;10.05;100.00;100712.81;6274511;28;20360;-80
2024/02/16 06:33:14;;;;;;;2.83;1.30;;;;;;;9.98;100.00;100716.66;6274794;28;20053;-80
2024/02/16 06:36:16;;;;;;;2.10;1.30;;;;;;;9.89;100.00;100699.59;6274974;28;20049;-79
2024/02/16 06:39:18;;;;;;;2.03;1.38;;;;;;;9.81;100.00;100698.28;6274560;28;20053;-80
2024/02/16 06:42:21;;;;;;;4.43;1.33;;;;;;;9.79;100.00;100706.25;6275121;28;20142;-80
2024/02/16 06:45:22;;;;;;;1.92;1.20;;;;;;;9.77;100.00;100710.75;6273946;28;20064;-80
2024/02/16 06:48:23;;;;;;;1.58;0.90;;;;;;;9.74;100.00;100721.38;6274501;28;20045;-80
2024/02/16 06:51:26;;;;;;;2.03;1.10;;;;;;;9.71;100.00;100724.16;6274600;28;20441;-80
2024/02/16 06:54:27;;;;;;;2.72;1.33;;;;;;;9.72;100.00;100731.13;6274570;28;20045;-80
2024/02/16 06:57:31;;;;;;;3.47;1.45;;;;;;;9.70;100.00;100735.59;6274448;28;20049;-80
2024/02/16 07:00:32;;;;;;;1.55;0.95;;;;;;;9.68;100.00;100733.97;6273810;28;20105;-80
2024/02/16 07:03:35;;;;;;;1.58;1.05;;;;;;;9.65;100.00;100737.59;6271135;28;20132;-79
2024/02/16 07:06:36;;;;;;;5.00;1.33;;;;;;;9.62;100.00;100745.59;6279307;28;20441;-79
2024/02/16 07:09:39;;;;;;;1.83;1.10;;;;;;;9.63;100.00;100747.34;6279035;28;20044;-80
2024/02/16 07:12:42;;;;;;;2.30;1.08;;;;;;;9.60;100.00;100736.97;6279301;28;20104;-80
2024/02/16 07:15:43;;;;;;;1.83;1.23;;;;;;;9.58;100.00;100736.19;6279221;28;20049;-80
2024/02/16 07:18:45;;;;;;;2.38;1.20;;;;;;;9.55;100.00;100739.81;6278847;28;20148;-79
2024/02/16 07:21:46;;;;;;;2.50;1.42;;;;;;;9.55;100.00;100742.44;6279324;28;20051;-79
2024/02/16 07:24:48;;;;;;;2.92;1.25;;;;;;;9.62;100.00;100737.72;6278716;28;20068;-79
2024/02/16 07:27:52;;;;;;;4.00;1.27;;;;;;;9.67;100.00;100735.72;6278789;28;20056;-79
2024/02/16 07:30:54;;;;;;;3.20;1.42;;;;;;;9.70;100.00;100734.75;6276844;28;20057;-79
2024/02/16 07:33:56;;;;;;;2.38;1.15;;;;;;;9.74;100.00;100734.50;6291977;22;20048;-78
2024/02/16 07:36:58;;;;;;;2.55;1.20;;;;;;;9.80;100.00;100735.97;6279504;28;20052;-79
2024/02/16 07:39:59;;;;;;;2.22;1.15;;;;;;;9.89;100.00;100740.75;6278336;28;20064;-80
2024/02/16 07:43:02;;;;;;;2.85;1.02;;;;;;;9.96;100.00;100739.53;6279246;28;20053;-78
2024/02/16 07:46:05;;;;;;;7.55;1.88;;;;;;;10.02;100.00;100743.63;6278360;28;20444;-79
2024/02/16 07:49:06;;;;;;;2.28;1.77;;;;;;;10.08;100.00;100740.66;6278132;28;20076;-79
2024/02/16 07:52:08;;;;;;;4.80;1.58;;;;;;;10.21;100.00;100746.13;6266906;28;20041;-73
2024/02/16 07:55:10;;;;;;;3.45;1.40;;;;;;;10.30;100.00;100740.44;6245287;28;20052;-78
2024/02/16 07:58:13;;;;;;;2.17;0.98;;;;;;;10.37;100.00;100747.94;6253092;28;20095;-80
2024/02/16 08:01:16;;;;;;;1.88;1.08;;;;;;;10.48;100.00;100741.25;6253869;28;20132;-80
2024/02/16 08:04:17;;;;;;;4.88;1.30;;;;;;;10.56;100.00;100747.78;6247637;28;20177;-80
2024/02/16 08:07:18;;;;;;;1.77;1.15;;;;;;;10.66;100.00;100751.63;6238264;28;20045;-82
2024/02/16 08:10:21;;;;;;;4.07;1.35;;;;;;;10.78;100.00;100757.16;6239640;28;20045;-79
2024/02/16 08:13:24;;;;;;;3.35;1.45;;;;;;;10.86;100.00;100758.44;6244461;28;20099;-77
2024/02/16 08:16:25;;;;;;;3.35;1.52;;;;;;;10.98;100.00;100761.34;6250076;28;20052;-77
2024/02/16 08:19:32;;;;;;;3.17;1.33;;;;;;;11.04;100.00;100764.50;6244668;28;20045;-81
2024/02/16 08:22:35;;;;;;;4.57;1.30;;;;;;;11.09;100.00;100757.19;6246869;28;20056;-80
2024/02/16 08:25:36;;;;;;;1.48;1.00;;;;;;;11.13;100.00;100756.09;6248298;28;20049;-80
2024/02/16 08:28:39;;;;;;;6.20;1.15;;;;;;;11.21;100.00;100755.66;6245041;28;20441;-79
2024/02/16 08:31:40;;;;;;;2.90;1.15;;;;;;;11.27;100.00;100746.59;6243697;28;20061;-79
2024/02/16 08:34:42;;;;;;;1.60;1.20;;;;;;;11.27;100.00;100750.06;6242473;28;20056;-79
2024/02/16 08:37:43;;;;;;;3.13;1.60;;;;;;;11.31;100.00;100751.59;6244120;28;20052;-80
2024/02/16 08:40:46;;;;;;;2.97;1.20;;;;;;;11.35;100.00;100747.81;6248080;28;20049;-77
2024/02/16 08:43:49;;;;;;;2.40;0.90;;;;;;;11.40;100.00;100751.06;6232757;28;20098;-77
2024/02/16 08:46:50;;;;;;;2.20;1.02;;;;;;;11.46;100.00;100756.91;6249832;28;20045;-79
2024/02/16 08:49:52;;;;;;;2.95;1.00;;;;;;;11.55;100.00;100753.75;6245865;28;20053;-79
2024/02/16 08:52:54;;;;;;;4.20;1.10;;;;;;;11.65;100.00;100750.50;6243957;28;20531;-79
2024/02/16 08:55:56;;;;;;;2.47;1.20;;;;;;;11.68;100.00;100752.97;6252170;28;20092;-79
2024/02/16 08:58:59;;;;;;;2.17;1.60;;;;;;;11.75;100.00;100758.72;6243419;28;20060;-77
2024/02/16 09:02:00;;;;;;;4.70;1.42;;;;;;;11.84;100.00;100758.19;6252261;28;20052;-78
2024/02/16 09:05:02;;;;;;;3.00;1.30;;;;;;;11.94;100.00;100761.13;6251692;28;20049;-78
2024/02/16 09:08:05;;;;;;;3.58;1.30;;;;;;;12.03;100.00;100765.03;6251677;28;20142;-71
2024/02/16 09:11:06;;;;;;;4.97;1.45;;;;;;;12.06;100.00;100755.16;6251909;28;20054;-78
2024/02/16 09:14:09;;;;;;;2.70;1.42;;;;;;;12.07;100.00;100750.72;6251728;28;20056;-78
2024/02/16 09:17:10;;;;;;;3.40;1.35;;;;;;;12.15;100.00;100740.59;6251544;28;20104;-78
2024/02/16 09:20:12;;;;;;;2.03;1.10;;;;;;;12.24;100.00;100745.31;6242747;28;20353;-77
2024/02/16 09:23:14;;;;;;;5.70;1.33;;;;;;;12.31;100.00;100758.94;6251383;28;20057;-78
2024/02/16 09:26:16;;;;;;;1.40;1.02;;;;;;;12.38;100.00;100753.22;6251003;28;20049;-78
2024/02/16 09:29:18;;;;;;;4.90;1.52;;;;;;;12.55;100.00;100757.47;6250400;28;20175;-78
2024/02/16 09:32:20;;;;;;;3.80;1.15;;;;;;;12.59;100.00;100763.41;6251280;28;20049;-78
2024/02/16 09:35:21;;;;;;;1.98;1.33;;;;;;;12.69;100.00;100767.16;6241847;28;20045;-79
2024/02/16 09:38:23;;;;;;;2.85;1.50;;;;;;;12.81;100.00;100770.81;6227475;28;20049;-80
2024/02/16 09:41:24;;;;;;;2.05;1.10;;;;;;;12.87;100.00;100776.56;6226663;28;20093;-79
2024/02/16 09:44:27;;;;;;;2.17;0.75;;;;;;;12.94;100.00;100785.81;6225890;28;20050;-79
2024/02/16 09:47:32;;;;;;;1.98;1.10;;;;;;;12.96;100.00;100777.78;6230829;28;20457;-78
2024/02/16 09:50:34;;;;;;;4.82;1.27;;;;;;;13.02;100.00;100773.91;6242802;28;20045;-79
2024/02/16 09:53:36;;;;;;;4.38;1.17;;;;;;;13.05;100.00;100787.75;6242221;28;20049;-81
2024/02/16 09:56:37;;;;;;;2.95;1.05;;;;;;;13.13;100.00;100789.94;6226732;28;20444;-78
2024/02/16 09:59:40;;;;;;;3.67;1.38;;;;;;;13.20;100.00;100791.22;6232103;28;20049;-77
2024/02/16 10:02:42;;;;;;;1.20;0.90;;;;;;;13.29;100.00;100793.31;6242635;28;20057;-80
2024/02/16 10:05:44;;;;;;;1.52;1.08;;;;;;;13.39;100.00;100789.13;6250356;28;20175;-80
2024/02/16 10:08:49;;;;;;;5.05;0.95;;;;;;;13.52;100.00;100794.47;6250536;28;20049;-80
2024/02/16 10:11:52;;;;;;;1.85;0.90;;;;;;;13.59;100.00;100795.78;6250653;28;20139;-79
2024/02/16 10:14:59;;;;;;;3.05;1.00;;;;;;;13.63;100.00;100794.63;6239669;28;20050;-78
2024/02/16 10:18:01;;;;;;;2.85;1.30;;;;;;;13.71;100.00;100805.50;6241674;28;20088;-78
2024/02/16 10:21:02;;;;;;;4.40;1.85;;;;;;;13.69;100.00;100796.84;6250896;28;20052;-80
2024/02/16 10:24:08;;;;;;;1.85;0.93;;;;;;;13.64;100.00;100801.59;6250198;28;20057;-80
2024/02/16 10:27:14;;;;;;;3.67;1.10;;;;;;;13.63;100.00;100812.28;6250418;28;20045;-79
2024/02/16 10:30:18;;;;;;;1.33;0.90;;;;;;;13.63;100.00;100821.03;6245562;28;20041;-81
2024/02/16 10:33:20;;;;;;;1.40;0.80;;;;;;;13.71;100.00;100818.72;6238387;28;20057;-81
2024/02/16 10:36:23;;;;;;;1.35;0.88;;;;;;;13.74;100.00;100830.03;6240733;28;20041;-80
2024/02/16 10:39:25;;;;;;;2.22;1.15;;;;;;;13.83;100.00;100825.00;6239165;28;20045;-82
2024/02/16 10:42:28;;;;;;;2.97;1.00;;;;;;;13.84;100.00;100824.06;6242120;28;20057;-79
2024/02/16 10:45:33;;;;;;;6.60;1.10;;;;;;;13.84;100.00;100826.69;6247167;28;20049;-81
2024/02/16 10:48:34;;;;;;;4.22;1.30;;;;;;;13.86;100.00;100830.09;6246550;28;20053;-79
2024/02/16 10:51:39;;;;;;;2.25;1.25;;;;;;;13.98;100.00;100822.28;6254969;28;20056;-80
2024/02/16 10:54:42;;;;;;;3.13;1.40;;;;;;;14.02;100.00;100827.28;6255280;28;20093;-78
2024/02/16 10:57:45;;;;;;;6.55;1.38;;;;;;;14.14;100.00;100834.41;6254479;28;20045;-80
2024/02/16 11:00:52;;;;;;;2.53;1.30;;;;;;;14.23;100.00;100824.16;6254935;28;20349;-80
2024/02/16 11:04:02;;;;;;;4.30;1.40;;;;;;;14.39;100.00;100822.16;6251494;28;20137;-80
2024/02/16 11:07:12;;;;;;;2.20;1.27;;;;;;;14.36;100.00;100807.38;6246439;28;20396;-81
2024/02/16 11:10:14;;;;;;;3.78;1.55;;;;;;;14.29;100.00;100813.16;6244401;28;20437;-79
2024/02/16 11:13:23;;;;;;;4.30;1.25;;;;;;;14.28;100.00;100807.03;6246519;28;20049;-80
2024/02/16 11:16:25;;;;;;;3.60;1.50;;;;;;;14.39;100.00;100817.72;6229923;28;20430;-80
2024/02/16 11:19:27;;;;;;;5.35;1.45;;;;;;;14.45;100.00;100819.13;6229821;28;20438;-81
2024/02/16 11:22:29;;;;;;;1.95;1.13;;;;;;;14.63;100.00;100825.81;6229830;28;20050;-81
2024/02/16 11:25:33;;;;;;;4.20;1.40;;;;;;;14.77;100.00;100824.00;6240588;28;20057;-82
2024/02/16 11:28:36;;;;;;;3.40;1.15;;;;;;;14.88;100.00;100830.22;6253311;28;20055;-80
2024/02/16 11:31:38;;;;;;;3.55;1.35;;;;;;;15.07;100.00;100834.22;6254175;28;20056;-80
2024/02/16 11:34:40;;;;;;;3.75;1.65;;;;;;;15.40;100.00;100834.47;6253809;28;20464;-80
2024/02/16 11:37:41;;;;;;;7.72;1.88;;;;;;;15.47;100.00;100834.88;6253615;28;20057;-79
2024/02/16 11:40:53;;;;;;;7.13;1.35;;;;;;;15.50;100.00;100841.75;6253039;28;20056;-79
2024/02/16 11:44:00;;;;;;;3.55;1.50;;;;;;;15.54;100.00;100849.38;6245199;28;20056;-80
2024/02/16 11:47:05;;;;;;;3.78;1.60;;;;;;;15.39;100.00;100847.81;6245177;28;20052;-79
2024/02/16 11:50:10;;;;;;;3.15;1.50;;;;;;;15.41;100.00;100845.91;6253499;28;20108;-80
2024/02/16 11:53:16;;;;;;;6.60;1.98;;;;;;;15.41;100.00;100843.28;6248425;28;20053;-79
2024/02/16 11:56:24;;;;;;;2.65;1.48;;;;;;;15.39;100.00;100853.13;6250659;28;20044;-82
2024/02/16 11:59:26;;;;;;;8.13;1.70;;;;;;;15.42;100.00;100845.81;6245137;28;20046;-85
2024/02/16 12:02:29;;;;;;;5.63;2.25;;;;;;;15.40;100.00;100838.94;6253885;28;20060;-83
2024/02/16 12:05:30;;;;;;;4.57;1.90;;;;;;;15.30;100.00;100849.31;6253628;28;20053;-84
2024/02/16 12:08:36;;;;;;;2.95;1.75;;;;;;;15.22;100.00;100868.41;6252476;28;20126;-82
2024/02/16 12:11:37;;;;;;;5.63;1.45;;;;;;;15.16;100.00;100855.59;6254319;28;20053;-85
2024/02/16 12:14:39;;;;;;;3.67;1.55;;;;;;;15.09;100.00;100845.56;6243639;28;20132;-87
2024/02/16 12:17:41;;;;;;;3.22;1.67;;;;;;;15.11;100.00;100851.59;6245657;28;20049;-83
2024/02/16 12:20:47;;;;;;;3.10;1.40;;;;;;;14.98;100.00;100843.66;6245245;28;20049;-85
2024/02/16 12:23:48;;;;;;;2.65;1.60;;;;;;;14.88;100.00;100853.19;6253118;28;20357;-83
2024/02/16 12:26:50;;;;;;;4.00;1.75;;;;;;;14.86;100.00;100860.41;6245063;28;20048;-81
2024/02/16 12:29:52;;;;;;;3.83;1.55;;;;;;;14.82;100.00;100862.41;6251540;28;20438;-83
2024/02/16 12:32:55;;;;;;;3.90;1.55;;;;;;;14.88;100.00;100866.44;6252934;28;20049;-83
2024/02/16 12:35:57;;;;;;;4.32;2.00;;;;;;;14.89;100.00;100868.97;6252842;28;20056;-83
2024/02/16 12:38:58;;;;;;;5.40;1.63;;;;;;;14.71;100.00;100868.44;6253028;28;20057;-81
2024/02/16 12:41:59;;;;;;;4.75;1.88;;;;;;;14.62;100.00;100876.16;6252691;28;20052;-85
2024/02/16 12:45:01;;;;;;;5.47;2.08;;;;;;;14.64;100.00;100874.25;6252451;28;20045;-81
2024/02/16 12:48:04;;;;;;;9.90;1.80;;;;;;;14.57;100.00;100875.63;6243702;28;20042;-82
2024/02/16 12:51:06;;;;;;;6.90;2.13;;;;;;;14.57;100.00;100887.03;6253290;28;20049;-80
2024/02/16 12:54:08;;;;;;;5.43;2.00;;;;;;;14.52;100.00;100869.81;6252276;28;20045;-81
2024/02/16 12:57:13;;;;;;;4.38;2.10;;;;;;;14.53;100.00;100874.13;6249457;28;20056;-81
2024/02/16 13:00:15;;;;;;;5.50;1.88;;;;;;;14.49;100.00;100876.16;6250923;28;20057;-82
2024/02/16 13:03:18;;;;;;;3.38;2.10;;;;;;;14.56;100.00;100889.81;6252141;28;20327;-83
2024/02/16 13:06:19;;;;;;;4.40;2.00;;;;;;;14.52;100.00;100883.88;6252118;28;20354;-79
2024/02/16 13:09:20;;;;;;;5.55;2.08;;;;;;;14.55;100.00;100883.66;6251679;28;20481;-81
2024/02/16 13:12:23;;;;;;;6.40;1.83;;;;;;;14.55;100.00;100875.75;6251966;28;20349;-82
2024/02/16 13:15:24;;;;;;;5.15;2.10;;;;;;;14.52;100.00;100883.88;6234905;28;20136;-81
2024/02/16 13:18:27;;;;;;;3.03;1.70;;;;;;;14.53;100.00;100887.34;6251776;28;20056;-83
2024/02/16 13:21:29;;;;;;;4.22;2.17;;;;;;;14.54;100.00;100887.28;6252305;28;20045;-86
2024/02/16 13:24:30;;;;;;;3.45;1.80;;;;;;;14.52;100.00;100880.38;6251649;28;20053;-82
2024/02/16 13:27:31;;;;;;;4.18;2.20;;;;;;;14.54;100.00;100887.28;6251141;28;20057;-85
2024/02/16 13:30:33;;;;;;;6.53;1.95;;;;;;;14.61;100.00;100885.88;6251654;28;20049;-81
2024/02/16 13:33:35;;;;;;;5.47;2.35;;;;;;;14.64;100.00;100890.13;6275555;22;20045;-80
2024/02/16 13:36:37;;;;;;;4.15;2.28;;;;;;;14.55;100.00;100890.75;6267778;28;20057;-80
2024/02/16 13:39:38;;;;;;;5.57;2.33;;;;;;;14.45;100.00;100893.16;6275330;28;20056;-78
2024/02/16 13:42:40;;;;;;;5.88;2.03;;;;;;;14.63;100.00;100896.38;6275853;28;20049;-80
2024/02/16 13:45:52;;;;;;;4.90;2.55;;;;;;;14.55;100.00;100893.41;6259080;28;20049;-80
2024/02/16 13:48:56;;;;;;;3.95;2.22;;;;;;;14.44;100.00;100904.66;6226131;28;20046;-80
2024/02/16 13:51:58;;;;;;;3.50;2.40;;;;;;;14.41;100.00;100905.72;6231711;28;22383;-80
2024/02/16 13:55:00;;;;;;;9.73;2.30;;;;;;;14.34;100.00;100911.50;6264533;28;20053;-77
2024/02/16 13:58:01;;;;;;;6.10;2.80;;;;;;;14.30;100.00;100913.50;6253845;28;20673;-77
2024/02/16 14:01:03;;;;;;;7.60;2.65;;;;;;;14.32;100.00;100908.97;6247835;28;20586;-78